Time,TemperatureF,DewpointF,PressureIn,WindDirection,WindDirectionDegrees,WindSpeedMPH,WindSpeedGustMPH,Humidity,HourlyPrecipIn,Conditions,Clouds,dailyrainin,SoftwareType,DateUTC
2013-12-12 00:08:00,24.9,9.0,30.48,WSW,257,0.0,1.0,50,0.00,,,0.00,weatherlink.com 1.10,2013-12-12 07:08:00,
2013-12-12 00:23:00,25.3,7.0,30.48,WSW,257,0.0,2.0,46,0.00,,,0.00,weatherlink.com 1.10,2013-12-12 07:23:00,
2013-12-12 00:38:00,26.0,8.0,30.46,WSW,257,2.0,2.0,46,0.00,,,0.00,weatherlink.com 1.10,2013-12-12 07:38:00,
2013-12-12 00:53:00,25.9,8.0,30.45,WSW,257,0.0,0.0,47,0.00,,,0.00,weatherlink.com 1.10,2013-12-12 07:53:00,
2013-12-12 01:08:00,26.2,7.0,30.45,WSW,257,0.0,1.0,45,0.00,,,0.00,weatherlink.com 1.10,2013-12-12 08:08:00,
2013-12-12 01:23:00,26.2,7.0,30.45,WSW,257,0.0,0.0,44,0.00,,,0.00,weatherlink.com 1.10,2013-12-12 08:23:00,
2013-12-12 01:38:00,26.8,7.0,30.45,WSW,257,1.0,2.0,44,0.00,,,0.00,weatherlink.com 1.10,2013-12-12 08:38:00,
2013-12-12 01:53:00,29.3,8.0,30.44,WSW,257,0.0,2.0,41,0.00,,,0.00,weatherlink.com 1.10,2013-12-12 08:53:00,
2013-12-12 02:08:00,29.5,10.0,30.45,ENE,69,0.0,3.0,45,0.00,,,0.00,weatherlink.com 1.10,2013-12-12 09:08:00,
2013-12-12 02:23:00,29.2,10.0,30.44,ENE,69,0.0,0.0,44,0.00,,,0.00,weatherlink.com 1.10,2013-12-12 09:23:00,
2013-12-12 02:38:00,28.4,8.0,30.44,ENE,69,0.0,0.0,43,0.00,,,0.00,weatherlink.com 1.10,2013-12-12 09:38:00,
2013-12-12 02:53:00,28.7,10.0,30.43,ENE,73,0.0,1.0,45,0.00,,,0.00,weatherlink.com 1.10,2013-12-12 09:53:00,
2013-12-12 03:08:00,30.4,11.0,30.42,WNW,285,0.0,5.0,44,0.00,,,0.00,weatherlink.com 1.10,2013-12-12 10:08:00,
2013-12-12 03:23:00,30.6,10.0,30.40,WNW,285,0.0,1.0,42,0.00,,,0.00,weatherlink.com 1.10,2013-12-12 10:23:00,
2013-12-12 03:38:00,30.7,10.0,30.39,East,79,0.0,2.0,42,0.00,,,0.00,weatherlink.com 1.10,2013-12-12 10:38:00,
2013-12-12 03:53:00,31.5,10.0,30.38,East,79,0.0,2.0,41,0.00,,,0.00,weatherlink.com 1.10,2013-12-12 10:53:00,
2013-12-12 04:08:00,32.0,11.0,30.37,East,82,0.0,3.0,41,0.00,,,0.00,weatherlink.com 1.10,2013-12-12 11:08:00,
2013-12-12 04:23:00,32.0,11.0,30.38,SW,230,0.0,4.0,41,0.00,,,0.00,weatherlink.com 1.10,2013-12-12 11:23:00,
2013-12-12 04:38:00,32.1,10.0,30.38,SSW,208,0.0,1.0,39,0.00,,,0.00,weatherlink.com 1.10,2013-12-12 11:38:00,
2013-12-12 04:53:00,32.1,10.0,30.38,SSW,208,0.0,2.0,40,0.00,,,0.00,weatherlink.com 1.10,2013-12-12 11:53:00,
2013-12-12 05:08:00,32.6,10.0,30.37,SSW,207,0.0,1.0,39,0.00,,,0.00,weatherlink.com 1.10,2013-12-12 12:08:00,
2013-12-12 05:23:00,33.0,11.0,30.37,SSW,207,0.0,1.0,40,0.00,,,0.00,weatherlink.com 1.10,2013-12-12 12:23:00,
2013-12-12 05:38:00,33.3,12.0,30.38,SSE,166,0.0,1.0,41,0.00,,,0.00,weatherlink.com 1.10,2013-12-12 12:38:00,
2013-12-12 05:53:00,33.2,12.0,30.38,NW,309,0.0,1.0,42,0.00,,,0.00,weatherlink.com 1.10,2013-12-12 12:53:00,
2013-12-12 06:08:00,33.4,12.0,30.38,WNW,296,2.0,3.0,42,0.00,,,0.00,weatherlink.com 1.10,2013-12-12 13:08:00,
2013-12-12 06:23:00,34.0,13.0,30.37,West,263,2.0,2.0,42,0.00,,,0.00,weatherlink.com 1.10,2013-12-12 13:23:00,
2013-12-12 06:38:00,34.0,13.0,30.38,NNW,340,2.0,3.0,42,0.00,,,0.00,weatherlink.com 1.10,2013-12-12 13:38:00,
2013-12-12 06:53:00,34.8,11.0,30.37,WNW,300,3.0,3.0,38,0.00,,,0.00,weatherlink.com 1.10,2013-12-12 13:53:00,
2013-12-12 07:09:00,35.0,12.0,30.38,WNW,300,1.0,3.0,38,0.00,,,0.00,weatherlink.com 1.10,2013-12-12 14:09:00,
2013-12-12 07:24:00,34.8,13.0,30.37,North,355,0.0,1.0,40,0.00,,,0.00,weatherlink.com 1.10,2013-12-12 14:24:00,
2013-12-12 07:39:00,35.3,12.0,30.37,NNW,348,0.0,2.0,39,0.00,,,0.00,weatherlink.com 1.10,2013-12-12 14:39:00,
2013-12-12 07:54:00,36.2,13.0,30.37,NW,319,0.0,2.0,38,0.00,,,0.00,weatherlink.com 1.10,2013-12-12 14:54:00,
2013-12-12 08:09:00,36.4,13.0,30.37,NNE,16,1.0,2.0,39,0.00,,,0.00,weatherlink.com 1.10,2013-12-12 15:09:00,
2013-12-12 08:24:00,37.4,14.0,30.38,WNW,301,2.0,3.0,38,0.00,,,0.00,weatherlink.com 1.10,2013-12-12 15:24:00,
2013-12-12 08:39:00,38.1,14.0,30.38,WNW,296,1.0,4.0,37,0.00,,,0.00,weatherlink.com 1.10,2013-12-12 15:39:00,
2013-12-12 08:54:00,38.9,14.0,30.38,NW,326,0.0,2.0,37,0.00,,,0.00,weatherlink.com 1.10,2013-12-12 15:54:00,
2013-12-12 09:09:00,39.5,14.0,30.37,NW,318,1.0,3.0,36,0.00,,,0.00,weatherlink.com 1.10,2013-12-12 16:09:00,
2013-12-12 09:24:00,39.8,15.0,30.36,NW,304,0.0,3.0,36,0.00,,,0.00,weatherlink.com 1.10,2013-12-12 16:24:00,
2013-12-12 09:39:00,40.2,14.0,30.36,NW,304,0.0,1.0,35,0.00,,,0.00,weatherlink.com 1.10,2013-12-12 16:39:00,
2013-12-12 09:54:00,40.7,15.0,30.36,WNW,284,0.0,2.0,35,0.00,,,0.00,weatherlink.com 1.10,2013-12-12 16:54:00,
2013-12-12 10:09:00,41.3,16.0,30.36,WNW,284,0.0,2.0,36,0.00,,,0.00,weatherlink.com 1.10,2013-12-12 17:09:00,
2013-12-12 10:24:00,41.8,18.0,30.35,NNW,332,0.0,3.0,39,0.00,,,0.00,weatherlink.com 1.10,2013-12-12 17:24:00,
2013-12-12 10:39:00,42.1,17.0,30.35,WNW,302,0.0,3.0,36,0.00,,,0.00,weatherlink.com 1.10,2013-12-12 17:39:00,
2013-12-12 10:54:00,42.4,17.0,30.34,WNW,298,1.0,2.0,36,0.00,,,0.00,weatherlink.com 1.10,2013-12-12 17:54:00,
2013-12-12 11:09:00,43.2,18.0,30.33,WSW,253,3.0,3.0,37,0.00,,,0.00,weatherlink.com 1.10,2013-12-12 18:09:00,
2013-12-12 11:24:00,43.6,19.0,30.32,NNW,327,2.0,4.0,37,0.00,,,0.00,weatherlink.com 1.10,2013-12-12 18:24:00,
2013-12-12 11:39:00,42.5,18.0,30.31,North,11,0.0,5.0,38,0.00,,,0.00,weatherlink.com 1.10,2013-12-12 18:39:00,
2013-12-12 11:54:00,42.0,19.0,30.30,NNE,24,0.0,1.0,39,0.00,,,0.00,weatherlink.com 1.10,2013-12-12 18:54:00,
2013-12-12 12:09:00,41.4,18.0,30.29,SSE,157,0.0,2.0,39,0.00,,,0.00,weatherlink.com 1.10,2013-12-12 19:09:00,
2013-12-12 12:24:00,41.0,19.0,30.28,NNE,12,0.0,2.0,41,0.00,,,0.00,weatherlink.com 1.10,2013-12-12 19:24:00,
2013-12-12 12:39:00,40.4,19.0,30.28,North,360,0.0,2.0,42,0.00,,,0.00,weatherlink.com 1.10,2013-12-12 19:39:00,
2013-12-12 12:54:00,40.4,18.0,30.27,NE,51,1.0,2.0,41,0.00,,,0.00,weatherlink.com 1.10,2013-12-12 19:54:00,
2013-12-12 13:09:00,40.4,19.0,30.27,NNW,333,0.0,4.0,43,0.00,,,0.00,weatherlink.com 1.10,2013-12-12 20:09:00,
2013-12-12 13:24:00,40.2,18.0,30.26,WNW,290,0.0,1.0,41,0.00,,,0.00,weatherlink.com 1.10,2013-12-12 20:24:00,
2013-12-12 13:39:00,39.9,18.0,30.25,WNW,290,0.0,1.0,41,0.00,,,0.00,weatherlink.com 1.10,2013-12-12 20:39:00,
2013-12-12 13:54:00,38.8,18.0,30.23,WNW,302,0.0,0.0,43,0.00,,,0.00,weatherlink.com 1.10,2013-12-12 20:54:00,
2013-12-12 14:10:00,38.8,18.0,30.23,WNW,302,0.0,0.0,43,0.00,,,0.00,weatherlink.com 1.10,2013-12-12 21:10:00,
2013-12-12 14:25:00,39.2,18.0,30.22,WNW,302,0.0,0.0,43,0.00,,,0.00,weatherlink.com 1.10,2013-12-12 21:25:00,
2013-12-12 14:40:00,39.2,21.0,30.22,WNW,302,0.0,0.0,48,0.00,,,0.00,weatherlink.com 1.10,2013-12-12 21:40:00,
2013-12-12 14:55:00,38.9,19.0,30.21,WNW,302,0.0,1.0,44,0.00,,,0.00,weatherlink.com 1.10,2013-12-12 21:55:00,
2013-12-12 15:10:00,38.7,19.0,30.21,WNW,302,0.0,1.0,46,0.00,,,0.00,weatherlink.com 1.10,2013-12-12 22:10:00,
2013-12-12 15:25:00,38.4,19.0,30.21,WNW,302,0.0,1.0,45,0.00,,,0.00,weatherlink.com 1.10,2013-12-12 22:25:00,
2013-12-12 15:40:00,38.2,19.0,30.21,WNW,302,0.0,0.0,46,0.00,,,0.00,weatherlink.com 1.10,2013-12-12 22:40:00,
2013-12-12 15:55:00,37.1,18.0,30.20,WNW,302,0.0,1.0,47,0.00,,,0.00,weatherlink.com 1.10,2013-12-12 22:55:00,
2013-12-12 16:10:00,36.3,16.0,30.20,WNW,302,0.0,1.0,44,0.00,,,0.00,weatherlink.com 1.10,2013-12-12 23:10:00,
2013-12-12 16:25:00,34.8,16.0,30.19,WNW,302,0.0,0.0,46,0.00,,,0.00,weatherlink.com 1.10,2013-12-12 23:25:00,
2013-12-12 16:40:00,34.1,16.0,30.18,WNW,302,0.0,0.0,47,0.00,,,0.00,weatherlink.com 1.10,2013-12-12 23:40:00,
2013-12-12 16:55:00,33.6,16.0,30.19,WNW,302,1.0,2.0,48,0.00,,,0.00,weatherlink.com 1.10,2013-12-12 23:55:00,
2013-12-12 17:10:00,32.4,16.0,30.18,WNW,302,0.0,2.0,51,0.00,,,0.00,weatherlink.com 1.10,2013-12-13 00:10:00,
2013-12-12 17:25:00,32.3,16.0,30.18,WNW,302,0.0,1.0,52,0.00,,,0.00,weatherlink.com 1.10,2013-12-13 00:25:00,
2013-12-12 17:40:00,32.8,16.0,30.17,WNW,302,0.0,1.0,50,0.00,,,0.00,weatherlink.com 1.10,2013-12-13 00:40:00,
2013-12-12 17:55:00,32.6,16.0,30.17,WNW,302,0.0,0.0,51,0.00,,,0.00,weatherlink.com 1.10,2013-12-13 00:55:00,
2013-12-12 18:10:00,32.3,16.0,30.17,WNW,302,0.0,1.0,51,0.00,,,0.00,weatherlink.com 1.10,2013-12-13 01:10:00,
2013-12-12 18:25:00,31.9,16.0,30.16,WNW,302,1.0,3.0,52,0.00,,,0.00,weatherlink.com 1.10,2013-12-13 01:25:00,
2013-12-12 18:40:00,31.9,15.0,30.16,WNW,302,0.0,2.0,51,0.00,,,0.00,weatherlink.com 1.10,2013-12-13 01:40:00,
2013-12-12 18:55:00,32.1,15.0,30.15,WNW,302,0.0,0.0,50,0.00,,,0.00,weatherlink.com 1.10,2013-12-13 01:55:00,
2013-12-12 19:10:00,31.6,15.0,30.15,WNW,302,0.0,1.0,51,0.00,,,0.00,weatherlink.com 1.10,2013-12-13 02:10:00,
2013-12-12 19:25:00,31.4,15.0,30.15,WNW,302,0.0,0.0,50,0.00,,,0.00,weatherlink.com 1.10,2013-12-13 02:25:00,
2013-12-12 19:40:00,31.8,14.0,30.14,WNW,302,1.0,2.0,49,0.00,,,0.00,weatherlink.com 1.10,2013-12-13 02:40:00,
2013-12-12 19:55:00,32.2,15.0,30.13,WNW,302,0.0,2.0,49,0.00,,,0.00,weatherlink.com 1.10,2013-12-13 02:55:00,
2013-12-12 20:10:00,32.4,15.0,30.13,WNW,302,1.0,2.0,48,0.00,,,0.00,weatherlink.com 1.10,2013-12-13 03:10:00,
2013-12-12 20:25:00,33.0,16.0,30.12,WNW,302,0.0,0.0,49,0.00,,,0.00,weatherlink.com 1.10,2013-12-13 03:25:00,
2013-12-12 20:40:00,32.9,15.0,30.11,WNW,302,0.0,1.0,47,0.00,,,0.00,weatherlink.com 1.10,2013-12-13 03:40:00,
2013-12-12 20:55:00,33.3,15.0,30.10,WNW,302,0.0,2.0,47,0.00,,,0.00,weatherlink.com 1.10,2013-12-13 03:55:00,
2013-12-12 21:10:00,33.2,15.0,30.09,WNW,302,0.0,2.0,47,0.00,,,0.00,weatherlink.com 1.10,2013-12-13 04:10:00,
2013-12-12 21:25:00,33.6,15.0,30.08,WNW,302,0.0,0.0,46,0.00,,,0.00,weatherlink.com 1.10,2013-12-13 04:25:00,
2013-12-12 21:40:00,33.2,15.0,30.08,WNW,302,1.0,2.0,47,0.00,,,0.00,weatherlink.com 1.10,2013-12-13 04:40:00,
2013-12-12 21:56:00,33.7,15.0,30.07,WNW,302,0.0,1.0,47,0.00,,,0.00,weatherlink.com 1.10,2013-12-13 04:56:00,
2013-12-12 22:11:00,33.9,16.0,30.05,WNW,302,2.0,3.0,49,0.00,,,0.00,weatherlink.com 1.10,2013-12-13 05:11:00,
2013-12-12 22:26:00,35.2,17.0,30.05,WNW,302,0.0,2.0,48,0.00,,,0.00,weatherlink.com 1.10,2013-12-13 05:26:00,
2013-12-12 22:41:00,33.0,17.0,30.04,SSE,157,1.0,3.0,52,0.00,,,0.00,weatherlink.com 1.10,2013-12-13 05:41:00,
2013-12-12 22:56:00,30.7,17.0,30.04,SSW,210,1.0,3.0,57,0.00,,,0.00,weatherlink.com 1.10,2013-12-13 05:56:00,
2013-12-12 23:11:00,31.2,17.0,30.03,SSW,210,0.0,3.0,57,0.00,,,0.00,weatherlink.com 1.10,2013-12-13 06:11:00,
2013-12-12 23:26:00,32.4,18.0,30.03,SSW,209,1.0,2.0,55,0.00,,,0.00,weatherlink.com 1.10,2013-12-13 06:26:00,
2013-12-12 23:41:00,31.2,17.0,30.02,SSW,209,1.0,2.0,57,0.00,,,0.00,weatherlink.com 1.10,2013-12-13 06:41:00,
2013-12-12 23:56:00,34.8,18.0,30.01,SSW,209,0.0,2.0,50,0.00,,,0.00,weatherlink.com 1.10,2013-12-13 06:56:00,